sensor_id;sensor_type;location;lat;lon;timestamp;P1;durP1;ratioP1;P2;durP2;ratioP2
1885;SDS011;943;51.568;6.998;2023-04-03T00:01:30;14.33;;;10.53;;
1885;SDS011;943;51.568;6.998;2023-04-03T00:03:59;12.40;;;9.70;;
1885;SDS011;943;51.568;6.998;2023-04-03T00:06:28;13.87;;;10.00;;
1885;SDS011;943;51.568;6.998;2023-04-03T00:08:55;12.47;;;9.20;;
1885;SDS011;943;51.568;6.998;2023-04-03T00:11:23;14.90;;;8.47;;
1885;SDS011;943;51.568;6.998;2023-04-03T00:13:52;11.67;;;8.67;;
1885;SDS011;943;51.568;6.998;2023-04-03T00:16:19;13.47;;;8.70;;
1885;SDS011;943;51.568;6.998;2023-04-03T00:18:47;11.73;;;8.23;;
1885;SDS011;943;51.568;6.998;2023-04-03T00:21:15;14.10;;;7.80;;
1885;SDS011;943;51.568;6.998;2023-04-03T00:23:43;7.73;;;5.97;;
1885;SDS011;943;51.568;6.998;2023-04-03T00:26:11;11.03;;;7.20;;
1885;SDS011;943;51.568;6.998;2023-04-03T00:28:39;8.07;;;5.97;;
1885;SDS011;943;51.568;6.998;2023-04-03T00:31:07;8.70;;;6.40;;
1885;SDS011;943;51.568;6.998;2023-04-03T00:33:36;8.93;;;5.30;;
1885;SDS011;943;51.568;6.998;2023-04-03T00:36:07;8.63;;;4.60;;
1885;SDS011;943;51.568;6.998;2023-04-03T00:38:37;5.93;;;4.10;;
1885;SDS011;943;51.568;6.998;2023-04-03T00:41:06;6.17;;;4.23;;
1885;SDS011;943;51.568;6.998;2023-04-03T00:43:35;6.40;;;5.03;;
1885;SDS011;943;51.568;6.998;2023-04-03T00:46:03;8.80;;;4.10;;
1885;SDS011;943;51.568;6.998;2023-04-03T00:48:36;6.97;;;4.40;;
1885;SDS011;943;51.568;6.998;2023-04-03T00:51:16;6.13;;;3.20;;
1885;SDS011;943;51.568;6.998;2023-04-03T00:53:53;4.53;;;3.37;;
1885;SDS011;943;51.568;6.998;2023-04-03T00:56:29;5.17;;;3.37;;
1885;SDS011;943;51.568;6.998;2023-04-03T00:59:04;9.13;;;3.90;;
1885;SDS011;943;51.568;6.998;2023-04-03T01:01:43;5.80;;;3.43;;
1885;SDS011;943;51.568;6.998;2023-04-03T01:04:34;5.43;;;3.20;;
1885;SDS011;943;51.568;6.998;2023-04-03T01:07:10;5.30;;;2.70;;
1885;SDS011;943;51.568;6.998;2023-04-03T01:10:03;5.17;;;3.03;;
1885;SDS011;943;51.568;6.998;2023-04-03T01:12:42;7.03;;;2.33;;
1885;SDS011;943;51.568;6.998;2023-04-03T01:15:15;5.23;;;2.67;;
1885;SDS011;943;51.568;6.998;2023-04-03T01:17:52;5.10;;;2.53;;
1885;SDS011;943;51.568;6.998;2023-04-03T01:26:10;4.40;;;2.17;;
1885;SDS011;943;51.568;6.998;2023-04-03T01:28:39;3.63;;;2.00;;
1885;SDS011;943;51.568;6.998;2023-04-03T01:34:15;4.27;;;2.13;;
1885;SDS011;943;51.568;6.998;2023-04-03T01:36:44;7.40;;;2.50;;
1885;SDS011;943;51.568;6.998;2023-04-03T01:39:12;10.07;;;1.83;;
1885;SDS011;943;51.568;6.998;2023-04-03T01:41:41;3.03;;;1.93;;
1885;SDS011;943;51.568;6.998;2023-04-03T01:44:17;6.40;;;2.57;;
1885;SDS011;943;51.568;6.998;2023-04-03T01:46:45;10.60;;;2.40;;
1885;SDS011;943;51.568;6.998;2023-04-03T01:49:13;7.07;;;2.47;;
1885;SDS011;943;51.568;6.998;2023-04-03T01:51:41;7.70;;;2.70;;
1885;SDS011;943;51.568;6.998;2023-04-03T01:54:09;6.27;;;2.30;;
1885;SDS011;943;51.568;6.998;2023-04-03T01:56:37;5.30;;;2.10;;
1885;SDS011;943;51.568;6.998;2023-04-03T01:59:07;4.90;;;2.70;;
1885;SDS011;943;51.568;6.998;2023-04-03T02:01:35;4.37;;;2.37;;
1885;SDS011;943;51.568;6.998;2023-04-03T02:04:03;6.03;;;2.50;;
1885;SDS011;943;51.568;6.998;2023-04-03T02:06:32;9.57;;;2.07;;
1885;SDS011;943;51.568;6.998;2023-04-03T02:09:00;7.17;;;2.20;;
1885;SDS011;943;51.568;6.998;2023-04-03T02:11:29;3.07;;;1.90;;
1885;SDS011;943;51.568;6.998;2023-04-03T02:13:58;3.70;;;2.07;;
1885;SDS011;943;51.568;6.998;2023-04-03T02:16:26;6.10;;;3.00;;
1885;SDS011;943;51.568;6.998;2023-04-03T02:18:58;4.20;;;2.07;;
1885;SDS011;943;51.568;6.998;2023-04-03T02:21:29;5.10;;;1.77;;
1885;SDS011;943;51.568;6.998;2023-04-03T02:24:01;7.80;;;2.60;;
1885;SDS011;943;51.568;6.998;2023-04-03T02:26:29;5.00;;;2.30;;
1885;SDS011;943;51.568;6.998;2023-04-03T02:28:57;6.07;;;2.50;;
1885;SDS011;943;51.568;6.998;2023-04-03T02:31:25;4.20;;;1.90;;
1885;SDS011;943;51.568;6.998;2023-04-03T02:33:53;6.13;;;2.50;;
1885;SDS011;943;51.568;6.998;2023-04-03T02:36:21;5.90;;;1.80;;
1885;SDS011;943;51.568;6.998;2023-04-03T02:38:54;4.40;;;2.00;;
1885;SDS011;943;51.568;6.998;2023-04-03T02:41:22;7.13;;;2.67;;
1885;SDS011;943;51.568;6.998;2023-04-03T02:43:52;9.43;;;2.10;;
1885;SDS011;943;51.568;6.998;2023-04-03T02:46:20;3.80;;;1.57;;
1885;SDS011;943;51.568;6.998;2023-04-03T02:48:49;4.37;;;2.10;;
1885;SDS011;943;51.568;6.998;2023-04-03T02:51:17;5.03;;;2.00;;
1885;SDS011;943;51.568;6.998;2023-04-03T02:53:46;4.10;;;1.77;;
1885;SDS011;943;51.568;6.998;2023-04-03T02:56:19;11.23;;;2.40;;
1885;SDS011;943;51.568;6.998;2023-04-03T02:58:48;3.60;;;1.73;;
1885;SDS011;943;51.568;6.998;2023-04-03T03:01:18;6.60;;;2.60;;
1885;SDS011;943;51.568;6.998;2023-04-03T03:03:46;8.13;;;3.20;;
1885;SDS011;943;51.568;6.998;2023-04-03T03:06:15;4.90;;;2.70;;
1885;SDS011;943;51.568;6.998;2023-04-03T03:08:44;4.37;;;2.20;;
1885;SDS011;943;51.568;6.998;2023-04-03T03:11:13;4.80;;;2.03;;
1885;SDS011;943;51.568;6.998;2023-04-03T03:13:42;4.93;;;2.20;;
1885;SDS011;943;51.568;6.998;2023-04-03T03:16:10;7.03;;;2.87;;
1885;SDS011;943;51.568;6.998;2023-04-03T03:18:39;5.00;;;2.20;;
1885;SDS011;943;51.568;6.998;2023-04-03T03:21:08;4.83;;;2.90;;
1885;SDS011;943;51.568;6.998;2023-04-03T03:23:37;6.00;;;2.70;;
1885;SDS011;943;51.568;6.998;2023-04-03T03:26:08;5.20;;;2.13;;
1885;SDS011;943;51.568;6.998;2023-04-03T03:28:38;6.20;;;2.53;;
1885;SDS011;943;51.568;6.998;2023-04-03T03:31:08;5.30;;;2.63;;
1885;SDS011;943;51.568;6.998;2023-04-03T03:33:38;4.13;;;2.20;;
1885;SDS011;943;51.568;6.998;2023-04-03T03:36:07;6.63;;;2.40;;
1885;SDS011;943;51.568;6.998;2023-04-03T03:38:36;7.60;;;2.40;;
1885;SDS011;943;51.568;6.998;2023-04-03T03:41:05;3.47;;;2.20;;
1885;SDS011;943;51.568;6.998;2023-04-03T03:43:34;6.00;;;2.60;;
1885;SDS011;943;51.568;6.998;2023-04-03T03:46:04;7.70;;;2.37;;
1885;SDS011;943;51.568;6.998;2023-04-03T03:48:32;9.40;;;2.27;;
1885;SDS011;943;51.568;6.998;2023-04-03T03:51:00;6.07;;;2.30;;
1885;SDS011;943;51.568;6.998;2023-04-03T03:53:32;5.90;;;2.43;;
1885;SDS011;943;51.568;6.998;2023-04-03T03:56:04;4.03;;;2.10;;
1885;SDS011;943;51.568;6.998;2023-04-03T03:58:36;6.27;;;2.60;;
1885;SDS011;943;51.568;6.998;2023-04-03T04:01:05;9.70;;;2.37;;
1885;SDS011;943;51.568;6.998;2023-04-03T04:03:41;3.80;;;2.17;;
1885;SDS011;943;51.568;6.998;2023-04-03T04:06:12;8.57;;;2.93;;
1885;SDS011;943;51.568;6.998;2023-04-03T04:08:41;5.60;;;2.57;;
1885;SDS011;943;51.568;6.998;2023-04-03T04:11:12;4.57;;;2.30;;
1885;SDS011;943;51.568;6.998;2023-04-03T04:13:41;8.90;;;3.60;;
1885;SDS011;943;51.568;6.998;2023-04-03T04:16:11;4.53;;;2.50;;
1885;SDS011;943;51.568;6.998;2023-04-03T04:18:39;4.83;;;2.67;;
1885;SDS011;943;51.568;6.998;2023-04-03T04:21:08;9.57;;;2.93;;
1885;SDS011;943;51.568;6.998;2023-04-03T04:23:38;4.97;;;2.40;;
1885;SDS011;943;51.568;6.998;2023-04-03T04:26:08;6.30;;;3.20;;
1885;SDS011;943;51.568;6.998;2023-04-03T04:28:39;6.10;;;3.10;;
1885;SDS011;943;51.568;6.998;2023-04-03T04:31:09;9.17;;;3.53;;
1885;SDS011;943;51.568;6.998;2023-04-03T04:33:40;6.73;;;2.77;;
1885;SDS011;943;51.568;6.998;2023-04-03T04:36:11;7.80;;;3.07;;
1885;SDS011;943;51.568;6.998;2023-04-03T04:38:43;5.73;;;3.20;;
1885;SDS011;943;51.568;6.998;2023-04-03T04:41:13;9.30;;;3.47;;
1885;SDS011;943;51.568;6.998;2023-04-03T04:43:41;6.23;;;3.37;;
1885;SDS011;943;51.568;6.998;2023-04-03T04:46:10;7.50;;;2.70;;
1885;SDS011;943;51.568;6.998;2023-04-03T04:48:44;9.97;;;3.10;;
1885;SDS011;943;51.568;6.998;2023-04-03T04:51:12;9.60;;;2.67;;
1885;SDS011;943;51.568;6.998;2023-04-03T04:53:41;10.30;;;3.00;;
1885;SDS011;943;51.568;6.998;2023-04-03T04:56:12;5.37;;;3.67;;
1885;SDS011;943;51.568;6.998;2023-04-03T04:58:41;5.57;;;2.73;;
1885;SDS011;943;51.568;6.998;2023-04-03T05:01:10;6.40;;;2.77;;
1885;SDS011;943;51.568;6.998;2023-04-03T05:03:50;6.40;;;2.83;;
1885;SDS011;943;51.568;6.998;2023-04-03T05:06:18;6.37;;;2.77;;
1885;SDS011;943;51.568;6.998;2023-04-03T05:08:46;7.20;;;2.70;;
1885;SDS011;943;51.568;6.998;2023-04-03T05:11:14;5.97;;;3.10;;
1885;SDS011;943;51.568;6.998;2023-04-03T05:13:44;5.23;;;3.03;;
1885;SDS011;943;51.568;6.998;2023-04-03T05:16:12;7.07;;;3.20;;
1885;SDS011;943;51.568;6.998;2023-04-03T05:18:40;4.10;;;2.63;;
1885;SDS011;943;51.568;6.998;2023-04-03T05:21:15;5.13;;;2.63;;
1885;SDS011;943;51.568;6.998;2023-04-03T05:23:46;7.10;;;3.20;;
1885;SDS011;943;51.568;6.998;2023-04-03T05:26:14;3.90;;;2.83;;
1885;SDS011;943;51.568;6.998;2023-04-03T05:28:45;4.20;;;2.00;;
1885;SDS011;943;51.568;6.998;2023-04-03T05:31:14;8.10;;;3.30;;
1885;SDS011;943;51.568;6.998;2023-04-03T05:33:43;11.17;;;2.70;;
1885;SDS011;943;51.568;6.998;2023-04-03T05:36:16;6.20;;;2.97;;
1885;SDS011;943;51.568;6.998;2023-04-03T05:38:49;7.17;;;2.73;;
1885;SDS011;943;51.568;6.998;2023-04-03T05:41:18;4.77;;;2.73;;
1885;SDS011;943;51.568;6.998;2023-04-03T05:43:48;11.43;;;3.70;;
1885;SDS011;943;51.568;6.998;2023-04-03T05:46:18;6.60;;;3.43;;
1885;SDS011;943;51.568;6.998;2023-04-03T05:48:52;9.30;;;2.70;;
1885;SDS011;943;51.568;6.998;2023-04-03T05:51:24;6.53;;;2.90;;
1885;SDS011;943;51.568;6.998;2023-04-03T05:54:14;7.73;;;2.67;;
1885;SDS011;943;51.568;6.998;2023-04-03T05:57:13;6.00;;;2.43;;
1885;SDS011;943;51.568;6.998;2023-04-03T05:59:43;4.50;;;2.20;;
1885;SDS011;943;51.568;6.998;2023-04-03T06:02:15;6.60;;;2.80;;
1885;SDS011;943;51.568;6.998;2023-04-03T06:04:50;8.83;;;2.90;;
1885;SDS011;943;51.568;6.998;2023-04-03T06:07:20;8.63;;;2.67;;
1885;SDS011;943;51.568;6.998;2023-04-03T06:09:55;9.47;;;3.50;;
1885;SDS011;943;51.568;6.998;2023-04-03T06:12:24;5.30;;;2.00;;
1885;SDS011;943;51.568;6.998;2023-04-03T06:14:56;8.00;;;3.07;;
1885;SDS011;943;51.568;6.998;2023-04-03T06:17:24;7.97;;;3.13;;
1885;SDS011;943;51.568;6.998;2023-04-03T06:19:53;6.67;;;2.60;;
1885;SDS011;943;51.568;6.998;2023-04-03T06:22:22;9.47;;;3.20;;
1885;SDS011;943;51.568;6.998;2023-04-03T06:24:52;7.97;;;2.97;;
1885;SDS011;943;51.568;6.998;2023-04-03T06:27:20;13.13;;;4.40;;
1885;SDS011;943;51.568;6.998;2023-04-03T06:29:47;6.80;;;3.37;;
1885;SDS011;943;51.568;6.998;2023-04-03T06:32:16;8.57;;;3.40;;
1885;SDS011;943;51.568;6.998;2023-04-03T06:34:44;5.37;;;3.40;;
1885;SDS011;943;51.568;6.998;2023-04-03T06:37:22;5.30;;;3.07;;
1885;SDS011;943;51.568;6.998;2023-04-03T06:39:55;8.30;;;3.10;;
1885;SDS011;943;51.568;6.998;2023-04-03T06:42:23;4.00;;;2.90;;
1885;SDS011;943;51.568;6.998;2023-04-03T06:44:58;3.50;;;2.10;;
1885;SDS011;943;51.568;6.998;2023-04-03T06:47:26;3.10;;;1.60;;
1885;SDS011;943;51.568;6.998;2023-04-03T06:49:54;4.73;;;1.80;;
1885;SDS011;943;51.568;6.998;2023-04-03T06:52:22;5.03;;;2.60;;
1885;SDS011;943;51.568;6.998;2023-04-03T06:54:50;6.97;;;2.37;;
1885;SDS011;943;51.568;6.998;2023-04-03T06:57:23;6.47;;;2.57;;
1885;SDS011;943;51.568;6.998;2023-04-03T06:59:51;5.17;;;1.93;;
1885;SDS011;943;51.568;6.998;2023-04-03T07:02:19;3.03;;;1.60;;
1885;SDS011;943;51.568;6.998;2023-04-03T07:04:47;4.47;;;1.37;;
1885;SDS011;943;51.568;6.998;2023-04-03T07:07:15;9.73;;;2.17;;
1885;SDS011;943;51.568;6.998;2023-04-03T07:09:44;5.30;;;2.20;;
1885;SDS011;943;51.568;6.998;2023-04-03T07:12:13;4.40;;;2.13;;
1885;SDS011;943;51.568;6.998;2023-04-03T07:14:42;4.50;;;1.60;;
1885;SDS011;943;51.568;6.998;2023-04-03T07:17:10;3.17;;;1.47;;
1885;SDS011;943;51.568;6.998;2023-04-03T07:19:38;6.57;;;2.50;;
1885;SDS011;943;51.568;6.998;2023-04-03T07:22:05;4.23;;;2.00;;
1885;SDS011;943;51.568;6.998;2023-04-03T07:24:34;7.70;;;1.93;;
1885;SDS011;943;51.568;6.998;2023-04-03T07:27:03;7.43;;;2.03;;
1885;SDS011;943;51.568;6.998;2023-04-03T07:29:31;3.43;;;1.30;;
1885;SDS011;943;51.568;6.998;2023-04-03T07:31:59;7.03;;;2.13;;
1885;SDS011;943;51.568;6.998;2023-04-03T07:34:28;3.30;;;1.90;;
1885;SDS011;943;51.568;6.998;2023-04-03T07:36:57;9.23;;;2.50;;
1885;SDS011;943;51.568;6.998;2023-04-03T07:39:25;9.33;;;2.10;;
1885;SDS011;943;51.568;6.998;2023-04-03T07:41:54;4.60;;;1.93;;
1885;SDS011;943;51.568;6.998;2023-04-03T07:44:23;5.93;;;2.70;;
1885;SDS011;943;51.568;6.998;2023-04-03T07:46:51;3.73;;;1.70;;
1885;SDS011;943;51.568;6.998;2023-04-03T07:49:20;4.30;;;2.30;;
1885;SDS011;943;51.568;6.998;2023-04-03T07:51:50;5.63;;;1.50;;
1885;SDS011;943;51.568;6.998;2023-04-03T07:54:19;7.23;;;1.80;;
1885;SDS011;943;51.568;6.998;2023-04-03T07:56:47;6.63;;;2.10;;
1885;SDS011;943;51.568;6.998;2023-04-03T07:59:15;5.23;;;2.00;;
1885;SDS011;943;51.568;6.998;2023-04-03T08:01:42;3.20;;;1.80;;
1885;SDS011;943;51.568;6.998;2023-04-03T08:04:10;3.30;;;1.73;;
1885;SDS011;943;51.568;6.998;2023-04-03T08:06:38;5.30;;;2.17;;
1885;SDS011;943;51.568;6.998;2023-04-03T08:09:13;4.10;;;1.60;;
1885;SDS011;943;51.568;6.998;2023-04-03T08:11:42;4.13;;;1.83;;
1885;SDS011;943;51.568;6.998;2023-04-03T08:14:12;3.57;;;1.60;;
1885;SDS011;943;51.568;6.998;2023-04-03T08:16:46;6.27;;;2.00;;
1885;SDS011;943;51.568;6.998;2023-04-03T08:19:15;4.13;;;1.50;;
1885;SDS011;943;51.568;6.998;2023-04-03T08:21:53;5.40;;;2.00;;
1885;SDS011;943;51.568;6.998;2023-04-03T08:24:23;2.80;;;1.50;;
1885;SDS011;943;51.568;6.998;2023-04-03T08:26:51;3.07;;;1.43;;
1885;SDS011;943;51.568;6.998;2023-04-03T08:29:19;2.47;;;1.10;;
1885;SDS011;943;51.568;6.998;2023-04-03T08:31:48;3.70;;;1.53;;
1885;SDS011;943;51.568;6.998;2023-04-03T08:34:17;3.50;;;2.00;;
1885;SDS011;943;51.568;6.998;2023-04-03T08:36:46;6.00;;;1.70;;
1885;SDS011;943;51.568;6.998;2023-04-03T08:39:14;4.00;;;1.77;;
1885;SDS011;943;51.568;6.998;2023-04-03T08:41:44;3.10;;;1.30;;
1885;SDS011;943;51.568;6.998;2023-04-03T08:50:40;2.93;;;1.60;;
1885;SDS011;943;51.568;6.998;2023-04-03T08:53:21;5.23;;;1.80;;
1885;SDS011;943;51.568;6.998;2023-04-03T08:56:05;3.87;;;1.67;;
1885;SDS011;943;51.568;6.998;2023-04-03T08:58:41;5.27;;;1.83;;
1885;SDS011;943;51.568;6.998;2023-04-03T09:01:28;4.03;;;1.50;;
1885;SDS011;943;51.568;6.998;2023-04-03T09:04:11;4.50;;;2.00;;
1885;SDS011;943;51.568;6.998;2023-04-03T09:06:44;3.00;;;1.27;;
1885;SDS011;943;51.568;6.998;2023-04-03T09:09:44;4.60;;;2.00;;
1885;SDS011;943;51.568;6.998;2023-04-03T09:15:21;5.93;;;1.50;;
1885;SDS011;943;51.568;6.998;2023-04-03T09:18:19;3.10;;;1.80;;
1885;SDS011;943;51.568;6.998;2023-04-03T09:21:13;4.40;;;2.10;;
1885;SDS011;943;51.568;6.998;2023-04-03T09:24:10;4.50;;;1.83;;
1885;SDS011;943;51.568;6.998;2023-04-03T09:27:26;7.47;;;1.90;;
1885;SDS011;943;51.568;6.998;2023-04-03T09:29:39;10.73;;;1.87;;
1885;SDS011;943;51.568;6.998;2023-04-03T09:32:21;5.30;;;1.30;;
1885;SDS011;943;51.568;6.998;2023-04-03T09:38:16;4.10;;;1.10;;
1885;SDS011;943;51.568;6.998;2023-04-03T09:41:02;1.90;;;0.90;;
1885;SDS011;943;51.568;6.998;2023-04-03T09:43:52;4.53;;;1.37;;
1885;SDS011;943;51.568;6.998;2023-04-03T09:46:29;2.73;;;1.43;;
1885;SDS011;943;51.568;6.998;2023-04-03T09:49:02;2.77;;;1.23;;
1885;SDS011;943;51.568;6.998;2023-04-03T09:51:35;2.70;;;1.93;;
1885;SDS011;943;51.568;6.998;2023-04-03T09:54:23;3.30;;;1.20;;
1885;SDS011;943;51.568;6.998;2023-04-03T09:57:10;3.90;;;1.30;;
1885;SDS011;943;51.568;6.998;2023-04-03T09:59:48;9.20;;;1.50;;
1885;SDS011;943;51.568;6.998;2023-04-03T10:02:36;2.47;;;1.17;;
1885;SDS011;943;51.568;6.998;2023-04-03T10:11:12;4.63;;;1.17;;
1885;SDS011;943;51.568;6.998;2023-04-03T10:13:49;2.20;;;0.97;;
1885;SDS011;943;51.568;6.998;2023-04-03T10:22:37;4.50;;;1.37;;
1885;SDS011;943;51.568;6.998;2023-04-03T10:39:57;3.70;;;1.20;;
1885;SDS011;943;51.568;6.998;2023-04-03T10:43:15;7.60;;;1.20;;
1885;SDS011;943;51.568;6.998;2023-04-03T11:05:18;2.30;;;1.00;;
1885;SDS011;943;51.568;6.998;2023-04-03T11:08:25;5.73;;;1.50;;
1885;SDS011;943;51.568;6.998;2023-04-03T11:11:24;4.00;;;1.73;;
1885;SDS011;943;51.568;6.998;2023-04-03T11:16:56;3.37;;;1.80;;
1885;SDS011;943;51.568;6.998;2023-04-03T11:23:22;4.10;;;1.83;;
1885;SDS011;943;51.568;6.998;2023-04-03T11:26:15;3.70;;;1.50;;
1885;SDS011;943;51.568;6.998;2023-04-03T11:29:02;2.67;;;1.50;;
1885;SDS011;943;51.568;6.998;2023-04-03T11:35:15;3.10;;;1.23;;
1885;SDS011;943;51.568;6.998;2023-04-03T11:37:52;7.00;;;1.50;;
1885;SDS011;943;51.568;6.998;2023-04-03T11:40:29;15.43;;;2.60;;
1885;SDS011;943;51.568;6.998;2023-04-03T11:43:07;3.53;;;1.20;;
1885;SDS011;943;51.568;6.998;2023-04-03T11:51:00;3.17;;;1.20;;
1885;SDS011;943;51.568;6.998;2023-04-03T11:53:42;3.30;;;1.70;;
1885;SDS011;943;51.568;6.998;2023-04-03T11:59:15;3.20;;;1.50;;
1885;SDS011;943;51.568;6.998;2023-04-03T12:01:57;2.20;;;1.03;;
1885;SDS011;943;51.568;6.998;2023-04-03T12:04:26;2.77;;;1.40;;
1885;SDS011;943;51.568;6.998;2023-04-03T12:07:30;2.97;;;1.40;;
1885;SDS011;943;51.568;6.998;2023-04-03T12:09:56;2.23;;;1.00;;
1885;SDS011;943;51.568;6.998;2023-04-03T12:12:37;6.07;;;2.17;;
1885;SDS011;943;51.568;6.998;2023-04-03T12:15:41;3.93;;;1.37;;
1885;SDS011;943;51.568;6.998;2023-04-03T12:21:17;4.33;;;1.50;;
1885;SDS011;943;51.568;6.998;2023-04-03T12:26:41;3.50;;;0.90;;
1885;SDS011;943;51.568;6.998;2023-04-03T12:29:54;4.53;;;1.30;;
1885;SDS011;943;51.568;6.998;2023-04-03T12:33:17;3.60;;;1.10;;
1885;SDS011;943;51.568;6.998;2023-04-03T12:37:00;6.27;;;1.33;;
1885;SDS011;943;51.568;6.998;2023-04-03T12:43:55;3.30;;;1.60;;
1885;SDS011;943;51.568;6.998;2023-04-03T12:46:44;2.63;;;1.27;;
1885;SDS011;943;51.568;6.998;2023-04-03T12:52:16;3.20;;;1.40;;
1885;SDS011;943;51.568;6.998;2023-04-03T12:55:30;4.33;;;1.90;;
1885;SDS011;943;51.568;6.998;2023-04-03T12:58:15;4.37;;;1.80;;
1885;SDS011;943;51.568;6.998;2023-04-03T13:01:09;3.70;;;1.77;;
1885;SDS011;943;51.568;6.998;2023-04-03T13:03:43;3.57;;;1.60;;
1885;SDS011;943;51.568;6.998;2023-04-03T13:06:25;3.80;;;1.47;;
1885;SDS011;943;51.568;6.998;2023-04-03T13:09:06;4.00;;;1.77;;
1885;SDS011;943;51.568;6.998;2023-04-03T13:11:56;2.40;;;1.10;;
1885;SDS011;943;51.568;6.998;2023-04-03T13:14:37;3.97;;;1.93;;
1885;SDS011;943;51.568;6.998;2023-04-03T13:17:12;2.80;;;1.10;;
1885;SDS011;943;51.568;6.998;2023-04-03T13:19:43;2.70;;;1.20;;
1885;SDS011;943;51.568;6.998;2023-04-03T13:22:26;5.03;;;1.63;;
1885;SDS011;943;51.568;6.998;2023-04-03T13:25:13;4.93;;;1.97;;
1885;SDS011;943;51.568;6.998;2023-04-03T13:27:48;4.47;;;1.50;;
1885;SDS011;943;51.568;6.998;2023-04-03T13:30:25;4.13;;;1.10;;
1885;SDS011;943;51.568;6.998;2023-04-03T13:33:27;2.60;;;1.20;;
1885;SDS011;943;51.568;6.998;2023-04-03T13:36:03;3.93;;;1.47;;
1885;SDS011;943;51.568;6.998;2023-04-03T13:39:02;3.37;;;1.80;;
1885;SDS011;943;51.568;6.998;2023-04-03T13:41:40;4.13;;;1.30;;
1885;SDS011;943;51.568;6.998;2023-04-03T13:50:02;3.87;;;1.40;;
1885;SDS011;943;51.568;6.998;2023-04-03T13:52:54;3.03;;;1.40;;
1885;SDS011;943;51.568;6.998;2023-04-03T13:55:52;2.20;;;1.33;;
1885;SDS011;943;51.568;6.998;2023-04-03T13:58:35;3.67;;;1.10;;
1885;SDS011;943;51.568;6.998;2023-04-03T14:01:17;3.13;;;1.10;;
1885;SDS011;943;51.568;6.998;2023-04-03T14:03:57;4.47;;;1.40;;
1885;SDS011;943;51.568;6.998;2023-04-03T14:06:46;4.00;;;1.37;;
1885;SDS011;943;51.568;6.998;2023-04-03T14:09:16;2.47;;;1.33;;
1885;SDS011;943;51.568;6.998;2023-04-03T14:11:48;2.30;;;0.90;;
1885;SDS011;943;51.568;6.998;2023-04-03T14:14:26;6.63;;;1.87;;
1885;SDS011;943;51.568;6.998;2023-04-03T14:17:02;3.57;;;1.40;;
1885;SDS011;943;51.568;6.998;2023-04-03T14:19:51;4.10;;;1.17;;
1885;SDS011;943;51.568;6.998;2023-04-03T14:22:27;3.20;;;1.00;;
1885;SDS011;943;51.568;6.998;2023-04-03T14:25:03;3.57;;;1.23;;
1885;SDS011;943;51.568;6.998;2023-04-03T14:27:37;6.03;;;1.40;;
1885;SDS011;943;51.568;6.998;2023-04-03T14:30:18;2.40;;;1.07;;
1885;SDS011;943;51.568;6.998;2023-04-03T14:32:58;2.33;;;1.00;;
1885;SDS011;943;51.568;6.998;2023-04-03T14:35:27;7.17;;;2.70;;
1885;SDS011;943;51.568;6.998;2023-04-03T14:37:56;2.53;;;1.20;;
1885;SDS011;943;51.568;6.998;2023-04-03T14:40:25;2.77;;;1.30;;
1885;SDS011;943;51.568;6.998;2023-04-03T14:42:54;5.40;;;1.10;;
1885;SDS011;943;51.568;6.998;2023-04-03T14:45:23;3.60;;;1.97;;
1885;SDS011;943;51.568;6.998;2023-04-03T14:47:53;5.50;;;2.10;;
1885;SDS011;943;51.568;6.998;2023-04-03T14:50:26;2.87;;;1.40;;
1885;SDS011;943;51.568;6.998;2023-04-03T14:52:56;3.27;;;1.40;;
1885;SDS011;943;51.568;6.998;2023-04-03T14:55:26;3.50;;;1.57;;
1885;SDS011;943;51.568;6.998;2023-04-03T14:57:54;3.00;;;1.20;;
1885;SDS011;943;51.568;6.998;2023-04-03T15:00:23;3.40;;;1.53;;
1885;SDS011;943;51.568;6.998;2023-04-03T15:02:51;3.00;;;1.53;;
1885;SDS011;943;51.568;6.998;2023-04-03T15:05:20;2.73;;;1.20;;
1885;SDS011;943;51.568;6.998;2023-04-03T15:07:52;4.47;;;1.50;;
1885;SDS011;943;51.568;6.998;2023-04-03T15:10:27;3.60;;;1.60;;
1885;SDS011;943;51.568;6.998;2023-04-03T15:12:58;4.03;;;2.87;;
1885;SDS011;943;51.568;6.998;2023-04-03T15:15:29;3.80;;;1.93;;
1885;SDS011;943;51.568;6.998;2023-04-03T15:18:05;5.07;;;1.67;;
1885;SDS011;943;51.568;6.998;2023-04-03T15:20:40;5.07;;;1.20;;
1885;SDS011;943;51.568;6.998;2023-04-03T15:23:10;4.63;;;2.23;;
1885;SDS011;943;51.568;6.998;2023-04-03T15:25:46;4.50;;;1.70;;
1885;SDS011;943;51.568;6.998;2023-04-03T15:30:55;6.93;;;1.90;;
1885;SDS011;943;51.568;6.998;2023-04-03T15:33:24;4.83;;;1.90;;
1885;SDS011;943;51.568;6.998;2023-04-03T15:35:54;4.10;;;1.80;;
1885;SDS011;943;51.568;6.998;2023-04-03T15:38:33;4.03;;;1.50;;
1885;SDS011;943;51.568;6.998;2023-04-03T15:41:01;4.70;;;1.73;;
1885;SDS011;943;51.568;6.998;2023-04-03T15:43:30;10.17;;;1.57;;
1885;SDS011;943;51.568;6.998;2023-04-03T15:46:00;3.20;;;1.60;;
1885;SDS011;943;51.568;6.998;2023-04-03T15:48:29;3.40;;;2.23;;
1885;SDS011;943;51.568;6.998;2023-04-03T15:50:59;5.40;;;1.57;;
1885;SDS011;943;51.568;6.998;2023-04-03T15:53:27;7.17;;;2.07;;
1885;SDS011;943;51.568;6.998;2023-04-03T15:55:55;2.97;;;1.37;;
1885;SDS011;943;51.568;6.998;2023-04-03T15:58:23;4.93;;;1.87;;
1885;SDS011;943;51.568;6.998;2023-04-03T16:00:52;7.73;;;2.30;;
1885;SDS011;943;51.568;6.998;2023-04-03T16:03:20;2.90;;;1.50;;
1885;SDS011;943;51.568;6.998;2023-04-03T16:05:51;4.70;;;1.80;;
1885;SDS011;943;51.568;6.998;2023-04-03T16:08:19;3.33;;;1.67;;
1885;SDS011;943;51.568;6.998;2023-04-03T16:10:47;5.27;;;1.97;;
1885;SDS011;943;51.568;6.998;2023-04-03T16:13:16;3.93;;;1.43;;
1885;SDS011;943;51.568;6.998;2023-04-03T16:15:44;4.83;;;1.43;;
1885;SDS011;943;51.568;6.998;2023-04-03T16:18:12;4.80;;;1.67;;
1885;SDS011;943;51.568;6.998;2023-04-03T16:20:40;2.60;;;1.50;;
1885;SDS011;943;51.568;6.998;2023-04-03T16:23:10;3.53;;;1.30;;
1885;SDS011;943;51.568;6.998;2023-04-03T16:25:39;4.40;;;2.53;;
1885;SDS011;943;51.568;6.998;2023-04-03T16:28:12;2.90;;;1.60;;
1885;SDS011;943;51.568;6.998;2023-04-03T16:30:41;5.40;;;1.77;;
1885;SDS011;943;51.568;6.998;2023-04-03T16:33:13;3.73;;;2.10;;
1885;SDS011;943;51.568;6.998;2023-04-03T16:35:41;6.13;;;1.97;;
1885;SDS011;943;51.568;6.998;2023-04-03T16:38:10;8.03;;;1.87;;
1885;SDS011;943;51.568;6.998;2023-04-03T16:40:38;7.47;;;2.90;;
1885;SDS011;943;51.568;6.998;2023-04-03T16:43:06;7.03;;;2.30;;
1885;SDS011;943;51.568;6.998;2023-04-03T16:45:34;3.33;;;1.73;;
1885;SDS011;943;51.568;6.998;2023-04-03T16:48:02;3.03;;;1.73;;
1885;SDS011;943;51.568;6.998;2023-04-03T16:50:31;4.03;;;1.47;;
1885;SDS011;943;51.568;6.998;2023-04-03T16:52:59;4.43;;;1.80;;
1885;SDS011;943;51.568;6.998;2023-04-03T16:55:29;4.40;;;1.60;;
1885;SDS011;943;51.568;6.998;2023-04-03T16:57:58;5.67;;;2.40;;
1885;SDS011;943;51.568;6.998;2023-04-03T17:00:26;3.73;;;1.53;;
1885;SDS011;943;51.568;6.998;2023-04-03T17:02:58;5.40;;;1.83;;
1885;SDS011;943;51.568;6.998;2023-04-03T17:05:26;4.17;;;1.43;;
1885;SDS011;943;51.568;6.998;2023-04-03T17:07:54;2.83;;;1.70;;
1885;SDS011;943;51.568;6.998;2023-04-03T17:10:22;4.60;;;1.50;;
1885;SDS011;943;51.568;6.998;2023-04-03T17:12:51;4.00;;;1.70;;
1885;SDS011;943;51.568;6.998;2023-04-03T17:15:19;6.00;;;1.97;;
1885;SDS011;943;51.568;6.998;2023-04-03T17:17:47;3.50;;;1.40;;
1885;SDS011;943;51.568;6.998;2023-04-03T17:20:18;3.80;;;1.47;;
1885;SDS011;943;51.568;6.998;2023-04-03T17:22:46;3.37;;;2.07;;
1885;SDS011;943;51.568;6.998;2023-04-03T17:25:15;4.83;;;1.90;;
1885;SDS011;943;51.568;6.998;2023-04-03T17:27:43;3.43;;;1.53;;
1885;SDS011;943;51.568;6.998;2023-04-03T17:30:11;3.67;;;1.87;;
1885;SDS011;943;51.568;6.998;2023-04-03T17:32:39;3.83;;;2.37;;
1885;SDS011;943;51.568;6.998;2023-04-03T17:35:07;6.87;;;2.80;;
1885;SDS011;943;51.568;6.998;2023-04-03T17:37:37;3.90;;;2.17;;
1885;SDS011;943;51.568;6.998;2023-04-03T17:40:05;4.00;;;2.33;;
1885;SDS011;943;51.568;6.998;2023-04-03T17:42:34;5.50;;;2.10;;
1885;SDS011;943;51.568;6.998;2023-04-03T17:45:02;5.13;;;2.33;;
1885;SDS011;943;51.568;6.998;2023-04-03T17:47:31;3.53;;;1.77;;
1885;SDS011;943;51.568;6.998;2023-04-03T17:50:00;3.33;;;1.77;;
1885;SDS011;943;51.568;6.998;2023-04-03T17:52:39;2.90;;;1.47;;
1885;SDS011;943;51.568;6.998;2023-04-03T17:55:13;5.10;;;1.87;;
1885;SDS011;943;51.568;6.998;2023-04-03T17:57:50;4.97;;;2.60;;